Time;durP1;ratioP1;P1;durP2;ratioP2;P2;SDS_P1;SDS_P2;PMS_P1;PMS_P2;Temp;Humidity;BMP_temperature;BMP_pressure;BME280_temperature;BME280_humidity;BME280_pressure;Samples;Min_cycle;Max_cycle;Signal;HPM_P1;HPM_P2
2022/03/17 00:01:13;;;;;;;11.15;9.68;;;6.80;99.90;;;;;;647420;222;26923;-64
2022/03/17 00:03:41;;;;;;;10.68;9.68;;;6.70;99.90;;;;;;647481;222;26599;-64
2022/03/17 00:06:08;;;;;;;10.70;9.60;;;6.70;99.90;;;;;;647584;222;27208;-64
2022/03/17 00:08:35;;;;;;;12.37;9.68;;;6.70;99.90;;;;;;645727;221;26542;-64
2022/03/17 00:11:02;;;;;;;11.52;10.32;;;6.60;99.90;;;;;;640825;224;26854;-64
2022/03/17 00:13:30;;;;;;;9.85;9.05;;;6.60;99.90;;;;;;642546;221;26537;-64
2022/03/17 00:15:59;;;;;;;11.27;9.77;;;6.60;99.90;;;;;;639900;221;26573;-64
2022/03/17 00:18:26;;;;;;;11.63;10.40;;;6.60;99.90;;;;;;639414;224;26537;-64
2022/03/17 00:20:54;;;;;;;11.15;10.05;;;6.60;99.90;;;;;;640523;224;26508;-64
2022/03/17 00:23:22;;;;;;;10.77;9.70;;;6.50;99.90;;;;;;640827;222;26536;-64
2022/03/17 00:25:50;;;;;;;10.85;9.85;;;6.60;99.90;;;;;;637601;224;26563;-64
2022/03/17 00:28:18;;;;;;;12.13;10.88;;;6.50;99.90;;;;;;641180;222;26575;-64
2022/03/17 00:30:46;;;;;;;11.90;10.70;;;6.50;99.90;;;;;;638717;225;26527;-64
2022/03/17 00:33:13;;;;;;;11.82;10.60;;;6.50;99.90;;;;;;639908;223;26598;-64
2022/03/17 00:35:43;;;;;;;11.75;10.43;;;6.40;99.90;;;;;;641794;224;26560;-64
2022/03/17 00:38:10;;;;;;;11.68;10.48;;;6.40;99.90;;;;;;640645;224;26538;-64
2022/03/17 00:40:37;;;;;;;12.48;11.27;;;6.40;99.90;;;;;;641447;223;26765;-64
2022/03/17 00:43:05;;;;;;;11.52;10.32;;;6.40;99.90;;;;;;641406;224;26551;-64
2022/03/17 00:45:32;;;;;;;13.65;11.75;;;6.40;99.90;;;;;;639479;223;26784;-64
2022/03/17 00:47:59;;;;;;;12.27;10.55;;;6.30;99.90;;;;;;637675;225;26579;-64
2022/03/17 00:50:26;;;;;;;12.07;10.88;;;6.30;99.90;;;;;;637705;224;26837;-64
2022/03/17 00:52:53;;;;;;;11.70;10.52;;;6.20;99.90;;;;;;637709;224;26587;-64
2022/03/17 00:55:21;;;;;;;12.10;10.90;;;6.30;99.90;;;;;;637694;224;26796;-64
2022/03/17 00:57:48;;;;;;;11.88;10.77;;;6.30;99.90;;;;;;637644;225;26590;-64
2022/03/17 01:00:18;;;;;;;13.13;11.73;;;6.30;99.90;;;;;;637714;224;27138;-64
2022/03/17 01:02:44;;;;;;;12.70;11.50;;;6.20;99.90;;;;;;638023;225;26773;-64
2022/03/17 01:05:11;;;;;;;12.65;10.68;;;6.20;99.90;;;;;;637824;226;26548;-64
2022/03/17 01:07:38;;;;;;;11.93;10.80;;;6.20;99.90;;;;;;637806;224;26757;-64
2022/03/17 01:10:06;;;;;;;11.50;10.50;;;6.10;99.90;;;;;;637827;224;26488;-64
2022/03/17 01:12:34;;;;;;;11.77;10.65;;;6.10;99.90;;;;;;646471;221;27116;-63
2022/03/17 01:15:01;;;;;;;10.98;9.90;;;6.10;99.90;;;;;;637839;224;26513;-64
2022/03/17 01:17:28;;;;;;;12.30;11.20;;;6.10;99.90;;;;;;637806;225;26580;-64
2022/03/17 01:19:56;;;;;;;12.45;11.25;;;6.00;99.90;;;;;;637585;224;26524;-64
2022/03/17 01:22:24;;;;;;;11.15;10.13;;;6.00;99.90;;;;;;639637;220;26512;-64
2022/03/17 01:24:52;;;;;;;11.55;10.45;;;6.00;99.90;;;;;;640840;224;26521;-63
2022/03/17 01:27:20;;;;;;;12.25;11.07;;;6.00;99.90;;;;;;640784;224;26508;-63
2022/03/17 01:29:48;;;;;;;11.40;10.30;;;6.00;99.90;;;;;;642909;222;26510;-63
2022/03/17 01:32:16;;;;;;;12.05;10.85;;;6.00;99.90;;;;;;641677;221;26512;-63
2022/03/17 01:34:43;;;;;;;12.50;11.30;;;6.00;99.90;;;;;;644411;222;26574;-63
2022/03/17 01:37:10;;;;;;;13.13;11.82;;;6.00;99.90;;;;;;647614;221;26576;-64
2022/03/17 01:39:37;;;;;;;12.82;11.50;;;5.90;99.90;;;;;;639817;220;26542;-64
2022/03/17 01:42:05;;;;;;;11.95;10.75;;;5.90;99.90;;;;;;643634;220;26592;-64
2022/03/17 01:44:32;;;;;;;11.52;10.45;;;6.00;99.90;;;;;;647250;222;26639;-64
2022/03/17 01:49:33;;;;;;;12.73;11.52;;;5.90;99.90;;;;;;641316;224;26523;-63
2022/03/17 01:52:00;;;;;;;12.35;11.15;;;6.00;99.90;;;;;;638973;224;26534;-64
2022/03/17 01:54:27;;;;;;;12.55;11.35;;;6.00;99.90;;;;;;640022;222;26546;-63
2022/03/17 01:56:54;;;;;;;12.45;11.25;;;6.00;99.90;;;;;;648130;222;26526;-63
2022/03/17 01:59:21;;;;;;;12.48;11.25;;;5.90;99.90;;;;;;642904;222;26572;-63
2022/03/17 02:01:49;;;;;;;12.20;10.90;;;5.90;99.90;;;;;;639121;222;26821;-63
2022/03/17 02:04:16;;;;;;;11.77;10.65;;;5.90;99.90;;;;;;638398;222;26585;-63
2022/03/17 02:06:43;;;;;;;12.10;10.77;;;5.90;99.90;;;;;;641165;221;27457;-63
2022/03/17 02:09:10;;;;;;;12.73;11.48;;;6.00;99.90;;;;;;637844;222;26547;-63
2022/03/17 02:14:11;;;;;;;13.93;11.82;;;5.90;99.90;;;;;;647553;222;26843;-63
2022/03/17 02:16:38;;;;;;;13.00;11.73;;;5.80;99.90;;;;;;645410;221;26557;-63
2022/03/17 02:19:07;;;;;;;12.73;11.38;;;5.90;99.90;;;;;;640667;224;26745;-63
2022/03/17 02:21:34;;;;;;;12.18;10.93;;;5.90;99.90;;;;;;648861;221;26574;-63
2022/03/17 02:26:34;;;;;;;13.20;11.88;;;5.80;99.90;;;;;;637718;224;26593;-63
2022/03/17 02:29:00;;;;;;;12.48;11.27;;;5.80;99.90;;;;;;638137;221;26799;-63
2022/03/17 02:31:27;;;;;;;12.37;11.23;;;5.80;99.90;;;;;;644940;221;26568;-63
2022/03/17 02:33:54;;;;;;;13.23;11.93;;;5.80;99.90;;;;;;646277;222;26827;-63
2022/03/17 02:36:22;;;;;;;12.35;11.05;;;5.80;99.90;;;;;;640790;222;26562;-63
2022/03/17 02:38:49;;;;;;;12.70;11.50;;;5.80;99.90;;;;;;646673;222;26772;-63
2022/03/17 02:41:22;;;;;;;13.32;12.02;;;5.80;99.90;;;;;;641627;222;26520;-63
2022/03/17 02:43:43;;;;;;;14.25;12.18;;;5.70;99.90;;;;;;639207;222;26777;-63
2022/03/17 02:46:10;;;;;;;12.85;11.52;;;5.70;99.90;;;;;;637599;224;26580;-63
2022/03/17 02:48:38;;;;;;;13.07;11.38;;;5.70;99.90;;;;;;640691;224;26769;-63
2022/03/17 02:51:05;;;;;;;12.93;11.57;;;5.80;99.90;;;;;;640626;222;26556;-63
2022/03/17 02:53:32;;;;;;;13.95;12.52;;;5.70;99.90;;;;;;638815;225;26770;-64
2022/03/17 02:55:59;;;;;;;13.73;12.32;;;5.70;99.90;;;;;;640833;222;26555;-64
2022/03/17 02:58:27;;;;;;;13.50;11.88;;;5.60;99.90;;;;;;647907;221;26561;-64
2022/03/17 03:00:55;;;;;;;13.93;12.55;;;5.60;99.90;;;;;;638079;224;26524;-63
2022/03/17 03:03:22;;;;;;;13.40;12.10;;;5.60;99.90;;;;;;642479;222;26498;-63
2022/03/17 03:05:49;;;;;;;13.98;12.57;;;5.60;99.90;;;;;;641882;221;26771;-63
2022/03/17 03:08:16;;;;;;;14.87;12.60;;;5.70;99.90;;;;;;647243;222;26516;-63
2022/03/17 03:10:44;;;;;;;14.80;13.32;;;5.70;99.90;;;;;;646883;221;26860;-63
2022/03/17 03:13:11;;;;;;;13.73;12.32;;;5.70;99.90;;;;;;650299;221;26582;-63
2022/03/17 03:15:38;;;;;;;13.20;11.90;;;5.70;99.90;;;;;;642506;221;26797;-63
2022/03/17 03:18:05;;;;;;;13.88;12.48;;;5.70;99.90;;;;;;637830;222;26557;-63
2022/03/17 03:20:32;;;;;;;14.10;12.80;;;5.70;99.90;;;;;;638059;222;26827;-63
2022/03/17 03:22:59;;;;;;;15.70;13.25;;;5.60;99.90;;;;;;637664;225;26587;-63
2022/03/17 03:25:27;;;;;;;13.65;12.32;;;5.60;99.90;;;;;;637798;222;26782;-62
2022/03/17 03:27:54;;;;;;;13.52;12.23;;;5.60;99.90;;;;;;637467;224;26555;-63
2022/03/17 03:30:21;;;;;;;13.73;12.40;;;5.60;99.90;;;;;;638791;224;26772;-63
2022/03/17 03:32:49;;;;;;;14.18;12.55;;;5.60;99.90;;;;;;640813;224;26529;-63
2022/03/17 03:37:48;;;;;;;13.50;12.10;;;5.60;99.90;;;;;;637433;224;26579;-63
2022/03/17 03:40:16;;;;;;;13.38;11.98;;;5.50;99.90;;;;;;641616;222;26606;-63
2022/03/17 03:42:44;;;;;;;14.00;12.50;;;5.50;99.90;;;;;;639718;222;26562;-63
2022/03/17 03:45:13;;;;;;;13.57;12.25;;;5.60;99.90;;;;;;639631;222;26533;-63
2022/03/17 03:47:39;;;;;;;13.68;12.27;;;5.60;99.90;;;;;;640136;222;26524;-63
2022/03/17 03:50:07;;;;;;;14.27;12.80;;;5.60;99.90;;;;;;640397;221;26510;-63
2022/03/17 03:52:35;;;;;;;14.40;12.90;;;5.60;99.90;;;;;;637389;224;26577;-63
2022/03/17 03:55:02;;;;;;;14.13;12.52;;;5.60;99.90;;;;;;639616;224;27225;-62
2022/03/17 03:57:29;;;;;;;14.93;13.43;;;5.60;99.90;;;;;;639921;224;26528;-62
2022/03/17 03:59:56;;;;;;;14.60;13.15;;;5.60;99.90;;;;;;638465;222;26817;-62
2022/03/17 04:02:24;;;;;;;15.75;13.77;;;5.60;99.90;;;;;;649880;219;26568;-63
2022/03/17 04:04:51;;;;;;;14.68;13.27;;;5.50;99.90;;;;;;646371;220;27188;-63
2022/03/17 04:07:19;;;;;;;15.18;13.62;;;5.60;99.90;;;;;;641957;223;26568;-63
2022/03/17 04:09:46;;;;;;;15.98;14.30;;;5.60;99.90;;;;;;643569;221;26769;-63
2022/03/17 04:12:13;;;;;;;15.13;13.62;;;5.50;99.90;;;;;;641534;223;26513;-63
2022/03/17 04:14:40;;;;;;;15.15;13.55;;;5.50;99.90;;;;;;644845;221;26792;-63
2022/03/17 04:17:07;;;;;;;14.57;13.25;;;5.50;99.90;;;;;;649661;221;26510;-63
2022/03/17 04:19:35;;;;;;;15.63;14.10;;;5.50;99.90;;;;;;641458;219;27082;-63
2022/03/17 04:22:02;;;;;;;15.55;14.02;;;5.50;99.90;;;;;;643615;221;26583;-63
2022/03/17 04:24:30;;;;;;;15.73;14.23;;;5.50;99.90;;;;;;637753;224;26588;-63
2022/03/17 04:26:58;;;;;;;16.15;14.35;;;5.50;99.90;;;;;;638326;224;26562;-63
2022/03/17 04:29:28;;;;;;;15.30;13.70;;;5.50;99.90;;;;;;644739;221;26570;-63
2022/03/17 04:31:53;;;;;;;15.68;14.10;;;5.50;99.90;;;;;;639125;221;26617;-64
2022/03/17 04:34:20;;;;;;;15.57;14.07;;;5.50;99.90;;;;;;637776;224;26573;-63
2022/03/17 04:36:48;;;;;;;16.33;14.68;;;5.40;99.90;;;;;;637748;225;26574;-63
2022/03/17 04:39:15;;;;;;;15.45;13.85;;;5.50;99.90;;;;;;640911;221;26817;-63
2022/03/17 04:41:42;;;;;;;16.23;14.55;;;5.50;99.90;;;;;;647773;217;26529;-66
2022/03/17 04:44:13;;;;;;;20.12;15.48;;;5.40;99.90;;;;;;640826;224;26548;-66
2022/03/17 04:46:40;;;;;;;16.77;15.10;;;5.40;99.90;;;;;;640741;224;26504;-66
2022/03/17 04:49:08;;;;;;;17.58;15.88;;;5.40;99.90;;;;;;640547;222;26552;-66
2022/03/17 04:51:34;;;;;;;16.92;15.07;;;5.40;99.90;;;;;;648173;221;26566;-66
2022/03/17 04:54:02;;;;;;;18.25;15.40;;;5.40;99.90;;;;;;643505;221;26580;-66
2022/03/17 04:56:28;;;;;;;17.45;15.75;;;5.40;99.90;;;;;;644765;221;26557;-65
2022/03/17 04:58:56;;;;;;;18.35;16.50;;;5.40;99.90;;;;;;637490;224;26555;-65
2022/03/17 05:01:24;;;;;;;17.62;15.77;;;5.50;99.90;;;;;;638515;224;26607;-67
2022/03/17 05:03:51;;;;;;;16.98;15.30;;;5.50;99.90;;;;;;640724;222;26772;-65
2022/03/17 05:06:19;;;;;;;17.02;15.23;;;5.50;99.90;;;;;;639860;222;26504;-65
2022/03/17 05:08:46;;;;;;;17.02;15.35;;;5.50;99.90;;;;;;642449;221;26607;-66
2022/03/17 05:11:13;;;;;;;17.58;15.88;;;5.40;99.90;;;;;;638886;222;26819;-66
2022/03/17 05:13:42;;;;;;;17.85;15.98;;;5.40;99.90;;;;;;640084;221;26581;-65
2022/03/17 05:16:07;;;;;;;18.70;16.80;;;5.40;99.90;;;;;;649002;216;26750;-65
2022/03/17 05:18:35;;;;;;;17.85;16.05;;;5.40;99.90;;;;;;648673;221;26511;-65
2022/03/17 05:21:02;;;;;;;18.20;16.35;;;5.40;99.90;;;;;;648431;222;26805;-66
2022/03/17 05:23:31;;;;;;;18.52;16.65;;;5.40;99.90;;;;;;648262;221;26537;-67
2022/03/17 05:25:57;;;;;;;17.17;15.48;;;5.40;99.90;;;;;;645819;222;27172;-66
2022/03/17 05:28:23;;;;;;;19.17;17.17;;;5.50;99.90;;;;;;638073;225;26524;-66
2022/03/17 05:30:51;;;;;;;18.83;16.95;;;5.50;99.90;;;;;;638071;219;26754;-66
2022/03/17 05:33:18;;;;;;;18.33;16.52;;;5.40;99.90;;;;;;637727;225;26604;-66
2022/03/17 05:35:45;;;;;;;18.83;16.90;;;5.40;99.90;;;;;;640280;222;26813;-66
2022/03/17 05:38:12;;;;;;;17.27;15.48;;;5.40;99.90;;;;;;637684;220;26568;-66
2022/03/17 05:40:39;;;;;;;17.98;16.27;;;5.50;99.90;;;;;;637674;224;26762;-65
2022/03/17 05:43:07;;;;;;;17.45;15.57;;;5.50;99.90;;;;;;637723;224;26633;-65
2022/03/17 05:45:34;;;;;;;18.42;16.50;;;5.50;99.90;;;;;;637784;224;26768;-66
2022/03/17 05:48:01;;;;;;;18.37;16.58;;;5.40;99.90;;;;;;637716;224;26573;-65
2022/03/17 05:50:28;;;;;;;18.33;16.62;;;5.50;99.90;;;;;;637410;224;26804;-65
2022/03/17 05:52:55;;;;;;;18.23;16.42;;;5.50;99.90;;;;;;637353;222;26597;-66
2022/03/17 05:55:23;;;;;;;18.62;16.62;;;5.50;99.90;;;;;;637367;226;27179;-66
2022/03/17 05:57:50;;;;;;;19.00;17.10;;;5.50;99.90;;;;;;637123;225;26559;-66
2022/03/17 06:00:17;;;;;;;19.27;17.35;;;5.50;99.90;;;;;;637292;224;26570;-66
2022/03/17 06:02:45;;;;;;;18.95;16.95;;;5.60;99.90;;;;;;638448;224;26590;-66
2022/03/17 06:05:13;;;;;;;19.58;17.48;;;5.50;99.90;;;;;;640836;224;26946;-66
2022/03/17 06:07:41;;;;;;;18.85;17.05;;;5.60;99.90;;;;;;640719;224;26517;-66
2022/03/17 06:10:08;;;;;;;19.90;17.80;;;5.60;99.90;;;;;;645033;222;26566;-66
2022/03/17 06:12:35;;;;;;;19.92;17.98;;;5.60;99.90;;;;;;647392;222;26646;-66
2022/03/17 06:15:03;;;;;;;19.15;17.15;;;5.60;99.90;;;;;;641237;222;26522;-66
2022/03/17 06:17:44;;;;;;;19.75;17.75;;;5.70;99.90;;;;;;642303;221;26586;-66
2022/03/17 06:20:12;;;;;;;19.65;17.65;;;5.80;99.90;;;;;;640238;224;26512;-65
2022/03/17 06:22:39;;;;;;;19.42;17.23;;;5.80;99.90;;;;;;640168;224;26559;-66
2022/03/17 06:25:07;;;;;;;19.27;17.27;;;5.80;99.90;;;;;;638133;223;26826;-66
2022/03/17 06:27:34;;;;;;;21.58;18.02;;;5.80;99.90;;;;;;638969;223;26556;-67
2022/03/17 06:30:11;;;;;;;20.80;16.95;;;5.90;99.90;;;;;;643440;221;26737;-67
2022/03/17 06:32:39;;;;;;;19.67;17.65;;;6.00;99.90;;;;;;643697;221;26572;-65
2022/03/17 06:35:08;;;;;;;19.45;17.42;;;6.10;99.90;;;;;;640984;221;26567;-65
2022/03/17 06:37:35;;;;;;;21.48;18.65;;;6.10;99.90;;;;;;641489;224;26516;-64
2022/03/17 06:40:02;;;;;;;23.70;19.33;;;6.10;99.90;;;;;;640197;224;26526;-65
2022/03/17 06:42:29;;;;;;;116.78;31.55;;;6.10;99.80;;;;;;645786;221;27325;-66
2022/03/17 06:44:56;;;;;;;114.88;37.90;;;6.20;99.70;;;;;;640338;222;26568;-66
2022/03/17 06:47:24;;;;;;;164.07;47.17;;;6.20;99.60;;;;;;637710;224;26601;-65
2022/03/17 06:49:52;;;;;;;194.27;50.00;;;6.30;99.50;;;;;;640241;222;26931;-66
2022/03/17 06:52:20;;;;;;;187.50;51.55;;;6.30;99.40;;;;;;642539;222;26588;-65
2022/03/17 06:54:50;;;;;;;157.77;45.75;;;6.30;99.40;;;;;;646987;222;26555;-64
2022/03/17 06:57:18;;;;;;;163.40;47.53;;;6.40;99.60;;;;;;639741;222;26792;-65
2022/03/17 06:59:47;;;;;;;172.30;50.20;;;6.40;99.00;;;;;;640749;222;26539;-66
2022/03/17 07:02:15;;;;;;;140.43;47.62;;;6.50;99.10;;;;;;643062;221;26575;-66
2022/03/17 07:04:42;;;;;;;126.68;42.42;;;6.50;99.10;;;;;;649038;221;26543;-62
2022/03/17 07:07:09;;;;;;;137.18;47.00;;;6.60;98.90;;;;;;650204;221;26761;-64
2022/03/17 07:09:36;;;;;;;101.78;41.75;;;6.70;99.00;;;;;;647905;221;26529;-66
2022/03/17 07:12:04;;;;;;;93.00;37.67;;;6.70;98.50;;;;;;642355;222;26805;-65
2022/03/17 07:14:32;;;;;;;86.35;35.40;;;6.90;98.40;;;;;;640848;224;26553;-67
2022/03/17 07:17:00;;;;;;;79.45;35.13;;;7.00;97.90;;;;;;640986;224;26542;-66
2022/03/17 07:19:30;;;;;;;57.42;27.50;;;7.00;97.90;;;;;;639255;221;26634;-63
2022/03/17 07:21:55;;;;;;;48.15;26.08;;;7.00;97.80;;;;;;644090;222;26563;-66
2022/03/17 07:24:23;;;;;;;41.58;25.12;;;7.00;97.60;;;;;;637618;222;26820;-66
2022/03/17 07:26:50;;;;;;;41.42;24.58;;;7.10;97.70;;;;;;644944;221;26574;-66
2022/03/17 07:29:18;;;;;;;33.75;22.20;;;7.10;97.60;;;;;;640253;221;26755;-66
2022/03/17 07:31:45;;;;;;;28.12;21.50;;;7.20;97.30;;;;;;639335;222;26783;-66
2022/03/17 07:34:13;;;;;;;28.70;22.02;;;7.30;97.20;;;;;;638388;219;26579;-66
2022/03/17 07:36:41;;;;;;;29.08;22.25;;;7.40;97.20;;;;;;641022;221;26615;-66
2022/03/17 07:39:08;;;;;;;24.58;21.48;;;7.40;97.10;;;;;;642498;220;26515;-66
2022/03/17 07:41:36;;;;;;;24.52;21.00;;;7.40;97.10;;;;;;647235;221;26532;-66
2022/03/17 07:44:04;;;;;;;26.05;21.15;;;7.50;96.70;;;;;;651314;221;26617;-65
2022/03/17 07:46:31;;;;;;;24.37;20.92;;;7.50;96.70;;;;;;650957;221;26520;-65
2022/03/17 07:48:59;;;;;;;23.95;21.27;;;7.50;96.60;;;;;;650999;221;26758;-65
2022/03/17 07:51:26;;;;;;;25.25;20.83;;;7.50;96.80;;;;;;651053;221;26521;-65
2022/03/17 07:53:54;;;;;;;22.70;20.10;;;7.60;96.50;;;;;;651020;221;26802;-66
2022/03/17 07:56:22;;;;;;;23.38;20.15;;;7.60;96.50;;;;;;650707;221;26588;-65
2022/03/17 07:58:49;;;;;;;21.95;19.62;;;7.70;96.30;;;;;;650719;217;26764;-66
2022/03/17 08:01:17;;;;;;;26.48;21.35;;;7.80;96.20;;;;;;650675;221;26557;-66
2022/03/17 08:03:43;;;;;;;22.20;19.90;;;7.90;95.90;;;;;;650667;221;26825;-66
2022/03/17 08:06:13;;;;;;;23.42;20.95;;;7.90;95.70;;;;;;650708;221;26554;-66
2022/03/17 08:08:39;;;;;;;24.92;21.02;;;8.00;95.70;;;;;;650503;221;26638;-66
2022/03/17 08:11:07;;;;;;;23.62;19.85;;;8.10;95.80;;;;;;646253;221;26594;-66
2022/03/17 08:13:35;;;;;;;22.17;19.15;;;8.20;95.50;;;;;;639491;224;26600;-67
2022/03/17 08:16:04;;;;;;;23.70;20.48;;;8.20;95.40;;;;;;640860;224;26509;-67
2022/03/17 08:18:34;;;;;;;21.37;19.17;;;8.20;95.40;;;;;;644883;221;26514;-67
2022/03/17 08:21:01;;;;;;;23.52;20.15;;;8.30;95.40;;;;;;646557;221;26785;-66
2022/03/17 08:23:28;;;;;;;32.33;24.67;;;8.60;94.90;;;;;;647596;222;26594;-66
2022/03/17 08:25:55;;;;;;;26.77;23.62;;;8.60;94.90;;;;;;647756;222;26559;-66
2022/03/17 08:28:24;;;;;;;27.60;23.92;;;8.60;94.50;;;;;;647776;222;26545;-66
2022/03/17 08:30:50;;;;;;;26.10;23.33;;;8.50;94.60;;;;;;647728;221;26866;-66
2022/03/17 08:33:17;;;;;;;28.60;25.25;;;8.40;94.70;;;;;;647692;222;26559;-67
2022/03/17 08:35:45;;;;;;;78.90;34.53;;;8.50;94.50;;;;;;647614;222;26760;-68
2022/03/17 08:38:12;;;;;;;111.68;41.55;;;8.50;94.50;;;;;;647464;222;26792;-68
2022/03/17 08:40:40;;;;;;;195.25;66.45;;;8.60;94.30;;;;;;647500;222;26605;-67
2022/03/17 08:43:06;;;;;;;1394.22;177.20;;;8.60;94.10;;;;;;647368;222;26847;-69
2022/03/17 08:50:39;;;;;;;96.12;45.45;;;8.80;93.80;;;;;;649188;221;26893;-68
2022/03/17 08:53:07;;;;;;;98.95;44.78;;;8.80;93.80;;;;;;648669;221;26543;-68
2022/03/17 08:55:36;;;;;;;84.90;45.00;;;8.90;93.40;;;;;;648517;221;26607;-66
2022/03/17 08:58:02;;;;;;;72.93;41.05;;;9.00;93.40;;;;;;641390;221;27254;-66
2022/03/17 09:00:31;;;;;;;61.33;36.83;;;9.20;93.40;;;;;;641153;223;26524;-66
2022/03/17 09:02:59;;;;;;;58.28;36.67;;;9.20;93.20;;;;;;641532;224;26795;-67
2022/03/17 09:05:23;;;;;;;46.25;30.62;;;9.20;92.90;;;;;;641615;224;26495;-66
2022/03/17 09:07:50;;;;;;;55.83;32.22;;;9.10;92.90;;;;;;641403;223;26768;-66
2022/03/17 09:10:18;;;;;;;45.88;31.42;;;9.20;92.70;;;;;;641429;223;26528;-66
2022/03/17 09:12:45;;;;;;;40.17;28.58;;;9.20;92.60;;;;;;641356;224;26800;-66
2022/03/17 09:15:14;;;;;;;37.63;27.87;;;9.30;92.70;;;;;;641221;224;26585;-66
2022/03/17 09:17:42;;;;;;;33.58;27.40;;;9.30;92.50;;;;;;641111;224;26801;-65
2022/03/17 09:20:15;;;;;;;33.55;25.80;;;9.30;92.60;;;;;;641135;224;27072;-66
2022/03/17 09:22:36;;;;;;;31.90;25.30;;;9.30;92.80;;;;;;640906;224;26579;-65
2022/03/17 09:25:05;;;;;;;29.83;24.73;;;9.40;92.40;;;;;;640996;224;26509;-65
2022/03/17 09:27:31;;;;;;;31.83;24.50;;;9.30;92.50;;;;;;640857;224;26526;-65
2022/03/17 09:29:58;;;;;;;24.10;21.67;;;9.50;92.20;;;;;;640906;224;26745;-65
2022/03/17 09:32:25;;;;;;;26.48;22.65;;;9.50;92.00;;;;;;640843;224;26516;-65
2022/03/17 09:34:52;;;;;;;24.95;22.45;;;9.50;92.20;;;;;;640917;224;26718;-65
2022/03/17 09:37:20;;;;;;;24.80;22.40;;;9.60;92.10;;;;;;640933;224;26528;-65
2022/03/17 09:39:47;;;;;;;25.17;22.33;;;9.70;91.70;;;;;;640868;224;26730;-65
2022/03/17 09:42:16;;;;;;;26.62;21.58;;;9.70;91.70;;;;;;640875;224;26509;-65
2022/03/17 09:44:46;;;;;;;26.17;23.20;;;9.80;91.70;;;;;;640510;224;26549;-66
2022/03/17 09:47:10;;;;;;;22.58;20.25;;;9.80;91.50;;;;;;640652;224;26520;-65
2022/03/17 09:49:39;;;;;;;24.08;21.65;;;9.80;91.30;;;;;;640867;224;26505;-65
2022/03/17 09:52:12;;;;;;;23.83;21.42;;;9.80;91.30;;;;;;640882;224;27046;-65
2022/03/17 09:54:35;;;;;;;23.80;21.27;;;9.90;91.20;;;;;;640362;224;26541;-66
2022/03/17 09:57:01;;;;;;;21.90;19.70;;;9.90;91.00;;;;;;640860;224;26910;-65
2022/03/17 09:59:28;;;;;;;25.83;21.00;;;10.00;90.40;;;;;;641237;222;26517;-65
2022/03/17 10:01:57;;;;;;;22.90;20.50;;;10.10;90.10;;;;;;642509;224;26884;-65
2022/03/17 10:04:23;;;;;;;22.92;20.52;;;10.10;90.00;;;;;;641934;224;26501;-65
2022/03/17 10:06:50;;;;;;;21.80;19.52;;;10.20;89.70;;;;;;641865;224;26809;-65
2022/03/17 10:09:17;;;;;;;21.95;19.65;;;10.30;89.10;;;;;;641592;224;26571;-65
2022/03/17 10:11:45;;;;;;;22.30;19.73;;;10.40;88.40;;;;;;641464;223;26525;-66
2022/03/17 10:14:12;;;;;;;21.10;18.92;;;10.50;88.00;;;;;;641557;224;26549;-65
2022/03/17 10:16:39;;;;;;;23.15;19.00;;;10.50;87.60;;;;;;641524;224;26494;-65
2022/03/17 10:19:06;;;;;;;22.00;19.80;;;10.60;87.40;;;;;;641313;223;26563;-65
2022/03/17 10:21:34;;;;;;;23.92;19.17;;;10.90;86.10;;;;;;641198;224;26575;-65
2022/03/17 10:24:03;;;;;;;22.17;19.65;;;11.00;85.80;;;;;;641090;224;26639;-65
2022/03/17 10:26:31;;;;;;;20.50;18.42;;;11.00;85.80;;;;;;641203;224;26770;-67
2022/03/17 10:29:15;;;;;;;21.92;19.70;;;11.20;85.50;;;;;;641139;223;26808;-67
2022/03/17 10:31:49;;;;;;;22.23;19.75;;;11.20;84.70;;;;;;641154;223;26540;-67
2022/03/17 10:34:16;;;;;;;20.65;18.30;;;11.60;83.90;;;;;;641164;223;26602;-67
2022/03/17 10:36:45;;;;;;;21.40;19.10;;;11.60;84.50;;;;;;640947;223;26474;-67
2022/03/17 10:39:11;;;;;;;23.25;19.65;;;11.70;82.60;;;;;;637168;222;26805;-67
2022/03/17 10:41:42;;;;;;;19.80;17.70;;;11.70;82.70;;;;;;637393;224;26607;-68
2022/03/17 10:44:11;;;;;;;20.37;18.20;;;11.70;82.10;;;;;;637205;224;26563;-67
2022/03/17 10:46:37;;;;;;;20.73;18.35;;;11.80;81.80;;;;;;637432;224;26582;-66
2022/03/17 10:49:05;;;;;;;18.98;17.08;;;11.90;81.70;;;;;;637471;224;26624;-67
2022/03/17 10:51:41;;;;;;;20.00;18.00;;;12.00;81.10;;;;;;637433;224;26838;-67
2022/03/17 10:54:08;;;;;;;20.33;18.33;;;12.10;81.20;;;;;;637418;224;26597;-67
2022/03/17 10:56:36;;;;;;;19.33;17.33;;;12.30;80.50;;;;;;637461;224;26576;-67
2022/03/17 10:59:03;;;;;;;20.90;18.70;;;12.50;80.20;;;;;;637406;224;26750;-68
2022/03/17 11:01:37;;;;;;;19.98;18.02;;;12.40;79.50;;;;;;637340;226;26541;-67
2022/03/17 11:04:05;;;;;;;20.98;17.37;;;12.50;78.90;;;;;;637362;225;26607;-68
2022/03/17 11:06:31;;;;;;;21.35;17.90;;;12.40;78.80;;;;;;637764;224;26544;-68
2022/03/17 11:09:01;;;;;;;31.37;19.92;;;12.30;78.30;;;;;;637800;219;26541;-68
2022/03/17 11:11:28;;;;;;;23.23;18.10;;;12.30;78.50;;;;;;638464;223;26483;-67
2022/03/17 11:13:56;;;;;;;23.80;17.73;;;12.40;78.20;;;;;;639309;224;26512;-67
2022/03/17 11:16:25;;;;;;;21.58;17.83;;;12.30;78.20;;;;;;638954;225;26515;-68
2022/03/17 11:18:53;;;;;;;19.15;17.08;;;12.40;77.50;;;;;;637881;225;26556;-68
2022/03/17 11:21:21;;;;;;;18.67;16.73;;;12.30;77.40;;;;;;638119;223;26517;-67
2022/03/17 11:23:57;;;;;;;19.85;17.45;;;12.30;77.40;;;;;;637335;225;26528;-67
2022/03/17 11:26:25;;;;;;;19.95;17.75;;;12.30;77.40;;;;;;638078;225;26562;-68
2022/03/17 11:28:51;;;;;;;23.17;19.08;;;12.30;77.10;;;;;;637533;225;26473;-68
2022/03/17 11:31:19;;;;;;;26.95;19.77;;;12.30;77.30;;;;;;636914;225;26795;-67
2022/03/17 11:33:46;;;;;;;23.10;18.67;;;12.30;77.20;;;;;;637702;225;26578;-68
2022/03/17 11:36:13;;;;;;;28.30;20.75;;;12.40;76.90;;;;;;637772;225;26766;-67
2022/03/17 11:38:41;;;;;;;24.52;19.98;;;12.40;76.60;;;;;;637717;225;26519;-67
2022/03/17 11:41:08;;;;;;;29.73;21.08;;;12.40;76.80;;;;;;637573;224;26747;-67
2022/03/17 11:43:57;;;;;;;29.08;20.42;;;12.40;76.30;;;;;;637709;224;26591;-67
2022/03/17 11:46:24;;;;;;;25.37;19.92;;;12.60;75.70;;;;;;636864;225;26956;-67
2022/03/17 11:48:51;;;;;;;24.35;19.42;;;12.60;75.60;;;;;;637473;225;26577;-67
2022/03/17 11:51:19;;;;;;;27.05;19.65;;;12.70;74.60;;;;;;637428;224;26787;-67
2022/03/17 11:53:47;;;;;;;22.95;18.60;;;12.70;74.60;;;;;;637432;224;26558;-67
2022/03/17 11:56:28;;;;;;;23.87;19.90;;;12.70;74.60;;;;;;636595;225;27212;-67
2022/03/17 11:58:55;;;;;;;28.50;19.37;;;12.70;74.60;;;;;;637466;226;26589;-68
2022/03/17 12:01:24;;;;;;;21.37;18.05;;;12.70;74.40;;;;;;637454;224;26552;-67
2022/03/17 12:03:53;;;;;;;24.10;19.08;;;12.70;74.50;;;;;;637310;224;26765;-67
2022/03/17 12:06:19;;;;;;;22.90;18.15;;;12.80;74.10;;;;;;637342;224;26557;-67
2022/03/17 12:08:53;;;;;;;23.45;18.75;;;12.80;74.00;;;;;;637412;225;26789;-67
2022/03/17 12:11:22;;;;;;;24.50;18.23;;;12.80;73.90;;;;;;637397;225;26587;-68
2022/03/17 12:14:08;;;;;;;24.48;18.80;;;12.90;73.40;;;;;;637299;225;26588;-67
2022/03/17 12:16:40;;;;;;;20.73;17.85;;;12.80;72.90;;;;;;636788;226;27209;-68
2022/03/17 12:19:05;;;;;;;20.00;17.85;;;13.00;72.70;;;;;;637610;220;26549;-69
2022/03/17 12:21:43;;;;;;;23.27;18.08;;;13.10;72.20;;;;;;637793;225;26859;-68
2022/03/17 12:24:11;;;;;;;22.52;17.70;;;13.00;72.20;;;;;;639339;223;26824;-68
2022/03/17 12:26:38;;;;;;;21.62;17.67;;;13.00;71.60;;;;;;639173;224;26481;-68
2022/03/17 12:29:07;;;;;;;20.30;17.10;;;13.10;71.50;;;;;;638860;225;26793;-68
2022/03/17 12:31:33;;;;;;;19.87;17.40;;;13.10;71.40;;;;;;638658;225;26537;-68
2022/03/17 12:34:00;;;;;;;22.20;17.30;;;13.00;71.70;;;;;;638486;224;26519;-68
2022/03/17 12:36:27;;;;;;;19.50;17.12;;;12.90;71.60;;;;;;638487;224;26523;-68
2022/03/17 12:38:55;;;;;;;19.35;17.40;;;12.80;72.20;;;;;;638467;225;26475;-68
2022/03/17 12:41:23;;;;;;;20.50;16.98;;;12.80;72.10;;;;;;638320;219;26799;-68
2022/03/17 12:43:50;;;;;;;19.00;16.80;;;12.80;72.30;;;;;;637416;225;26588;-68
2022/03/17 12:46:17;;;;;;;19.37;17.27;;;12.80;72.20;;;;;;624668;230;26777;-67
2022/03/17 12:48:44;;;;;;;19.20;17.00;;;12.80;72.80;;;;;;615951;233;26604;-68
2022/03/17 12:51:13;;;;;;;19.02;16.95;;;12.80;72.20;;;;;;615990;233;26637;-67